createdAt,value
2018-07-26T00:01:05.097Z,22.20
2018-07-26T00:03:34.487Z,22.30
2018-07-26T00:06:03.624Z,22.20
2018-07-26T00:08:32.712Z,22.20
2018-07-26T00:11:02.095Z,22.20
2018-07-26T00:13:31.183Z,22.10
2018-07-26T00:16:00.230Z,22.00
2018-07-26T00:18:30.370Z,21.90
2018-07-26T00:23:28.192Z,21.80
2018-07-26T00:25:57.528Z,21.70
2018-07-26T00:28:26.835Z,21.60
2018-07-26T00:30:55.911Z,21.50
2018-07-26T00:33:24.956Z,21.40
2018-07-26T00:35:54.782Z,21.40
2018-07-26T00:38:23.846Z,21.40
2018-07-26T00:40:52.978Z,21.50
2018-07-26T00:43:22.360Z,21.60
2018-07-26T00:45:51.446Z,21.50
2018-07-26T00:48:20.508Z,21.40
2018-07-26T00:50:49.953Z,21.20
2018-07-26T00:53:19.020Z,21.20
2018-07-26T00:55:48.103Z,21.20
2018-07-26T00:58:17.534Z,21.20
2018-07-26T01:00:46.619Z,21.10
2018-07-26T01:03:15.684Z,20.90
2018-07-26T01:05:45.162Z,20.80
2018-07-26T01:08:14.227Z,21.00
2018-07-26T01:10:43.311Z,21.00
2018-07-26T01:13:12.724Z,21.10
2018-07-26T01:15:41.793Z,21.00
2018-07-26T01:23:09.053Z,20.80
2018-07-26T01:25:38.131Z,21.00
2018-07-26T01:28:07.301Z,21.00
2018-07-26T01:30:36.360Z,20.90
2018-07-26T01:35:34.690Z,20.60
2018-07-26T01:38:03.788Z,20.60
2018-07-26T01:40:32.849Z,20.60
2018-07-26T01:43:12.974Z,20.60
2018-07-26T01:45:42.256Z,20.50
2018-07-26T01:48:11.327Z,20.50
2018-07-26T01:50:40.444Z,20.50
2018-07-26T01:53:09.816Z,20.70
2018-07-26T01:55:38.879Z,20.70
2018-07-26T02:00:37.038Z,20.60
2018-07-26T02:03:06.108Z,20.60
2018-07-26T02:05:35.176Z,20.60
2018-07-26T02:08:04.532Z,20.60
2018-07-26T02:10:33.599Z,20.70
2018-07-26T02:13:02.670Z,20.80
2018-07-26T02:15:31.954Z,20.80
2018-07-26T02:18:01.042Z,20.80
2018-07-26T02:27:56.860Z,20.30
2018-07-26T02:30:26.368Z,20.10
2018-07-26T02:32:55.423Z,20.10
2018-07-26T02:35:24.700Z,20.20
2018-07-26T02:37:54.137Z,20.10
2018-07-26T02:40:23.204Z,20.00
2018-07-26T02:45:21.392Z,19.80
2018-07-26T02:47:50.491Z,19.90
2018-07-26T02:52:48.700Z,19.90
2018-07-26T02:55:17.754Z,19.90
2018-07-26T02:57:46.828Z,19.80
2018-07-26T03:00:16.302Z,19.90
2018-07-26T03:02:45.376Z,19.70
2018-07-26T03:05:14.504Z,19.80
2018-07-26T03:07:43.647Z,19.80
2018-07-26T03:10:12.726Z,19.90
2018-07-26T03:12:41.811Z,19.80
2018-07-26T03:15:11.000Z,19.80
2018-07-26T03:17:40.075Z,19.80
2018-07-26T03:20:09.147Z,20.00
2018-07-26T03:22:38.482Z,20.00
2018-07-26T03:25:07.674Z,19.80
2018-07-26T03:27:36.757Z,19.80
2018-07-26T03:30:12.910Z,19.70
2018-07-26T03:32:42.039Z,19.60
2018-07-26T03:35:11.184Z,19.70
2018-07-26T03:37:40.252Z,19.90
2018-07-26T03:40:09.312Z,19.70
2018-07-26T03:42:38.745Z,19.60
2018-07-26T03:45:07.824Z,19.50
2018-07-26T03:47:36.906Z,19.60
2018-07-26T03:50:06.340Z,19.60
2018-07-26T03:52:35.426Z,19.60
2018-07-26T03:55:04.713Z,19.60
2018-07-26T03:57:34.284Z,19.50
2018-07-26T04:02:32.116Z,19.40
2018-07-26T04:05:01.236Z,19.30
2018-07-26T04:07:30.512Z,19.00
2018-07-26T04:09:59.610Z,19.00
2018-07-26T04:12:28.884Z,19.20
2018-07-26T04:14:57.968Z,19.20
2018-07-26T04:17:27.155Z,19.30
2018-07-26T04:19:56.341Z,19.30
2018-07-26T04:22:25.557Z,19.30
2018-07-26T04:24:54.628Z,19.20
2018-07-26T04:27:24.022Z,19.30
2018-07-26T04:29:53.097Z,19.30
2018-07-26T04:32:22.155Z,19.10
2018-07-26T04:34:51.370Z,19.20
2018-07-26T04:37:20.587Z,19.00
2018-07-26T04:39:49.655Z,18.90
2018-07-26T04:42:18.784Z,18.70
2018-07-26T04:44:47.889Z,18.90
2018-07-26T04:49:46.156Z,19.10
2018-07-26T04:52:15.259Z,19.20
2018-07-26T04:54:44.418Z,19.30
2018-07-26T04:59:42.541Z,19.50
2018-07-26T05:02:12.875Z,19.50
2018-07-26T05:04:42.209Z,19.60
2018-07-26T05:07:11.306Z,19.70
2018-07-26T05:09:40.367Z,19.90
2018-07-26T05:12:09.895Z,20.00
2018-07-26T05:14:38.989Z,20.10
2018-07-26T05:17:08.145Z,20.20
2018-07-26T05:19:37.294Z,20.30
2018-07-26T05:22:06.643Z,20.20
2018-07-26T05:24:35.709Z,20.30
2018-07-26T05:27:05.397Z,20.30
2018-07-26T05:32:03.389Z,20.40
2018-07-26T05:34:32.581Z,20.40
2018-07-26T05:37:01.647Z,20.40
2018-07-26T05:39:30.690Z,20.30
2018-07-26T05:42:00.196Z,20.40
2018-07-26T05:44:29.241Z,20.50
2018-07-26T05:49:27.173Z,20.60
2018-07-26T05:51:56.221Z,20.70
2018-07-26T05:56:54.147Z,20.60
2018-07-26T05:59:23.223Z,20.70
2018-07-26T06:01:52.415Z,20.80
2018-07-26T06:04:21.720Z,20.90
2018-07-26T06:06:50.849Z,21.00
2018-07-26T06:09:19.937Z,21.00
2018-07-26T06:11:49.087Z,21.00
2018-07-26T06:16:46.813Z,21.30
2018-07-26T06:19:16.287Z,21.30
2018-07-26T06:21:45.395Z,21.40
2018-07-26T06:24:14.471Z,21.40
2018-07-26T06:26:43.693Z,21.50
2018-07-26T06:29:12.879Z,21.60
2018-07-26T06:37:40.557Z,21.90
2018-07-26T06:40:09.918Z,21.90
2018-07-26T06:45:08.715Z,22.10
2018-07-26T06:47:37.843Z,22.10
2018-07-26T06:50:08.781Z,22.20
2018-07-26T06:52:38.033Z,22.30
2018-07-26T06:55:07.189Z,22.40
2018-07-26T06:57:37.021Z,22.70
2018-07-26T07:00:07.977Z,22.60
2018-07-26T07:02:37.300Z,22.70
2018-07-26T07:07:35.834Z,22.90
2018-07-26T07:10:05.502Z,23.10
2018-07-26T07:12:34.663Z,23.30
2018-07-26T07:15:04.196Z,23.40
2018-07-26T07:17:33.446Z,23.40
2018-07-26T07:20:02.629Z,23.40
2018-07-26T07:22:31.760Z,23.30
2018-07-26T07:25:01.022Z,23.30
2018-07-26T07:27:30.149Z,23.50
2018-07-26T07:29:59.247Z,23.70
2018-07-26T07:32:28.525Z,23.80
2018-07-26T07:34:57.641Z,23.70
2018-07-26T07:37:26.817Z,23.90
2018-07-26T07:39:56.148Z,23.90
2018-07-26T07:42:25.635Z,24.00
2018-07-26T07:44:54.730Z,24.20
2018-07-26T07:47:23.971Z,24.30
2018-07-26T07:49:52.980Z,24.30
2018-07-26T07:52:22.077Z,24.50
2018-07-26T07:54:51.330Z,24.70
2018-07-26T07:57:20.420Z,24.80
2018-07-26T07:59:49.547Z,25.00
2018-07-26T08:02:19.189Z,25.20
2018-07-26T08:04:48.928Z,25.20
2018-07-26T08:07:18.026Z,25.20
2018-07-26T08:09:47.443Z,25.40
2018-07-26T08:12:16.621Z,25.60
2018-07-26T08:14:45.737Z,25.80
2018-07-26T08:17:14.991Z,25.80
2018-07-26T08:19:44.187Z,25.90
2018-07-26T08:22:13.319Z,26.10
2018-07-26T08:24:42.599Z,26.20
2018-07-26T08:27:11.829Z,26.40
2018-07-26T08:29:41.019Z,26.60
2018-07-26T08:32:10.287Z,26.70
2018-07-26T08:34:39.501Z,26.80
2018-07-26T08:39:37.587Z,27.00
2018-07-26T08:42:07.293Z,27.10
2018-07-26T08:44:36.423Z,27.10
2018-07-26T08:47:05.730Z,27.10
2018-07-26T08:49:34.821Z,27.30
2018-07-26T08:52:04.060Z,27.40
2018-07-26T08:54:33.822Z,27.50
2018-07-26T08:57:02.998Z,27.70
2018-07-26T08:59:32.124Z,27.80
2018-07-26T09:02:01.277Z,27.80
2018-07-26T09:04:30.417Z,27.90
2018-07-26T09:06:59.579Z,28.20
2018-07-26T09:09:28.719Z,28.40
2018-07-26T09:11:58.180Z,28.30
2018-07-26T09:14:27.369Z,28.50
2018-07-26T09:16:56.522Z,28.70
2018-07-26T09:19:25.746Z,28.80
2018-07-26T09:21:55.056Z,28.90
2018-07-26T09:24:24.835Z,29.10
2018-07-26T09:26:53.998Z,29.20
2018-07-26T09:29:23.164Z,29.30
2018-07-26T09:31:52.342Z,29.40
2018-07-26T09:34:21.479Z,29.50
2018-07-26T09:36:50.559Z,29.60
2018-07-26T09:39:19.659Z,29.60
2018-07-26T09:41:48.761Z,29.60
2018-07-26T09:44:18.104Z,29.60
2018-07-26T09:46:47.190Z,29.60
2018-07-26T09:49:16.339Z,29.60
2018-07-26T09:51:45.409Z,29.50
2018-07-26T09:56:43.315Z,29.80
2018-07-26T09:59:12.381Z,30.00
2018-07-26T10:01:41.798Z,30.20
2018-07-26T10:04:11.267Z,30.20
2018-07-26T10:09:10.476Z,30.80
2018-07-26T10:14:08.301Z,30.90
2018-07-26T10:16:37.354Z,31.00
2018-07-26T10:19:06.436Z,31.20
2018-07-26T10:21:35.610Z,31.30
2018-07-26T10:24:04.694Z,31.30
2018-07-26T10:26:33.769Z,31.40
2018-07-26T10:29:02.844Z,31.50
2018-07-26T10:31:32.216Z,31.50
2018-07-26T10:34:01.326Z,31.50
2018-07-26T10:36:31.980Z,31.60
2018-07-26T10:39:01.094Z,31.60
2018-07-26T10:41:30.149Z,31.50
2018-07-26T10:46:28.657Z,31.60
2018-07-26T10:48:57.936Z,31.70
2018-07-26T10:51:27.014Z,31.80
2018-07-26T10:53:56.089Z,31.90
2018-07-26T10:56:25.265Z,31.70
2018-07-26T10:58:54.351Z,31.70
2018-07-26T11:06:21.715Z,32.20
2018-07-26T11:08:50.806Z,32.00
2018-07-26T11:11:19.899Z,32.10
2018-07-26T11:13:49.061Z,32.00
2018-07-26T11:16:18.128Z,32.00
2018-07-26T11:18:47.246Z,32.10
2018-07-26T11:21:16.356Z,32.10
2018-07-26T11:23:45.449Z,32.10
2018-07-26T11:26:15.028Z,32.20
2018-07-26T11:28:44.113Z,32.40
2018-07-26T11:31:13.178Z,32.50
2018-07-26T11:33:42.364Z,32.30
2018-07-26T11:36:11.574Z,32.30
2018-07-26T11:38:40.755Z,32.30
2018-07-26T11:41:09.988Z,32.60
2018-07-26T11:43:39.587Z,32.70
2018-07-26T11:46:08.712Z,32.80
2018-07-26T11:48:37.980Z,33.00
2018-07-26T11:51:07.288Z,33.00
2018-07-26T11:53:36.403Z,33.10
2018-07-26T11:56:06.003Z,33.20
2018-07-26T11:58:35.124Z,33.20
2018-07-26T12:01:04.262Z,33.20
2018-07-26T12:03:33.337Z,33.00
2018-07-26T12:06:02.425Z,33.00
2018-07-26T12:08:31.750Z,32.90
2018-07-26T12:11:00.836Z,33.00
2018-07-26T12:13:30.521Z,33.10
2018-07-26T12:15:59.879Z,33.00
2018-07-26T12:18:28.991Z,32.90
2018-07-26T12:20:58.113Z,33.00
2018-07-26T12:23:27.515Z,33.20
2018-07-26T12:25:56.611Z,33.20
2018-07-26T12:28:25.738Z,33.30
2018-07-26T12:30:54.929Z,33.30
2018-07-26T12:33:24.062Z,33.30
2018-07-26T12:35:53.151Z,33.60
2018-07-26T12:38:22.479Z,33.80
2018-07-26T12:40:51.600Z,34.00
2018-07-26T12:43:20.849Z,33.90
2018-07-26T12:45:49.962Z,33.90
2018-07-26T12:48:19.053Z,33.90
2018-07-26T12:50:48.227Z,33.80
2018-07-26T12:55:46.383Z,34.10
2018-07-26T12:58:15.478Z,34.20
2018-07-26T13:00:45.135Z,34.10
2018-07-26T13:03:14.236Z,34.10
2018-07-26T13:05:43.382Z,34.10
2018-07-26T13:08:12.615Z,34.20
2018-07-26T13:10:41.737Z,34.00
2018-07-26T13:13:10.914Z,34.10
2018-07-26T13:15:40.070Z,34.10
2018-07-26T13:18:09.185Z,34.00
2018-07-26T13:20:38.322Z,34.10
2018-07-26T13:25:36.200Z,34.20
2018-07-26T13:28:05.497Z,34.40
2018-07-26T13:30:34.681Z,34.50
2018-07-26T13:33:03.784Z,34.60
2018-07-26T13:35:32.950Z,34.30
2018-07-26T13:38:02.042Z,34.10
2018-07-26T13:40:31.185Z,33.90
2018-07-26T13:43:00.317Z,33.80
2018-07-26T13:45:30.049Z,33.50
2018-07-26T13:50:28.253Z,33.60
2018-07-26T13:52:57.526Z,34.20
2018-07-26T13:55:26.799Z,34.40
2018-07-26T13:57:55.912Z,34.60
2018-07-26T14:00:25.020Z,34.40
2018-07-26T14:02:54.166Z,34.30
2018-07-26T14:05:23.316Z,34.40
2018-07-26T14:07:52.984Z,34.60
2018-07-26T14:10:22.214Z,34.70
2018-07-26T14:12:51.655Z,34.60
2018-07-26T14:15:20.796Z,34.40
2018-07-26T14:17:49.874Z,34.40
2018-07-26T14:20:19.090Z,34.40
2018-07-26T14:22:48.207Z,34.50
2018-07-26T14:25:17.741Z,34.40
2018-07-26T14:27:47.711Z,34.50
2018-07-26T14:30:16.812Z,34.60
2018-07-26T14:32:45.890Z,34.50
2018-07-26T14:35:15.103Z,34.60
2018-07-26T14:37:44.276Z,34.70
2018-07-26T14:40:13.420Z,34.70
2018-07-26T14:42:42.539Z,34.70
2018-07-26T14:45:11.740Z,34.70
2018-07-26T14:47:41.661Z,34.80
2018-07-26T14:50:11.654Z,34.80
2018-07-26T14:52:40.906Z,34.80
2018-07-26T14:55:10.236Z,34.60
2018-07-26T14:57:39.318Z,34.50
2018-07-26T15:00:08.446Z,34.40
2018-07-26T15:02:37.574Z,34.40
2018-07-26T15:05:06.896Z,34.10
2018-07-26T15:07:36.875Z,34.30
2018-07-26T15:10:06.093Z,34.40
2018-07-26T15:12:35.313Z,34.40
2018-07-26T15:15:05.234Z,34.80
2018-07-26T15:17:34.356Z,35.00
2018-07-26T15:20:03.506Z,35.00
2018-07-26T15:22:32.655Z,35.00
2018-07-26T15:25:01.985Z,34.90
2018-07-26T15:27:31.135Z,34.90
2018-07-26T15:30:00.230Z,34.80
2018-07-26T15:32:29.942Z,34.50
2018-07-26T15:34:59.030Z,34.50
2018-07-26T15:37:28.145Z,34.50
2018-07-26T15:39:57.258Z,34.60
2018-07-26T15:42:27.590Z,34.90
2018-07-26T15:44:57.361Z,35.00
2018-07-26T15:49:55.189Z,35.20
2018-07-26T15:52:24.298Z,35.20
2018-07-26T15:54:53.386Z,34.80
2018-07-26T15:57:22.810Z,34.70
2018-07-26T15:59:51.932Z,34.40
2018-07-26T16:04:49.874Z,34.70
2018-07-26T16:07:18.982Z,34.90
2018-07-26T16:09:48.072Z,34.80
2018-07-26T16:12:17.273Z,35.00
2018-07-26T16:14:46.310Z,35.00
2018-07-26T16:17:16.058Z,34.90
2018-07-26T16:19:45.447Z,34.70
2018-07-26T16:22:14.721Z,34.50
2018-07-26T16:24:43.764Z,34.40
2018-07-26T16:27:14.177Z,34.50
2018-07-26T16:29:43.554Z,34.60
2018-07-26T16:32:12.771Z,34.70
2018-07-26T16:34:41.876Z,34.80
2018-07-26T16:37:11.214Z,34.60
2018-07-26T16:39:40.314Z,34.40
2018-07-26T16:42:09.420Z,34.40
2018-07-26T16:47:07.904Z,34.50
2018-07-26T16:49:36.987Z,34.60
2018-07-26T16:52:06.090Z,34.70
2018-07-26T16:54:35.187Z,34.80
2018-07-26T16:57:04.930Z,35.00
2018-07-26T17:02:02.977Z,34.80
2018-07-26T17:04:32.112Z,34.90
2018-07-26T17:07:01.821Z,35.00
2018-07-26T17:09:30.869Z,35.10
2018-07-26T17:11:59.965Z,35.00
2018-07-26T17:14:29.038Z,34.90
2018-07-26T17:16:58.132Z,34.90
2018-07-26T17:19:27.189Z,34.70
2018-07-26T17:21:56.309Z,34.60
2018-07-26T17:24:25.413Z,34.60
2018-07-26T17:26:54.500Z,34.80
2018-07-26T17:29:23.626Z,34.50
2018-07-26T17:31:53.034Z,34.60
2018-07-26T17:34:22.142Z,34.50
2018-07-26T17:36:51.332Z,34.50
2018-07-26T17:39:20.421Z,34.40
2018-07-26T17:41:49.517Z,34.20
2018-07-26T17:44:18.631Z,34.10
2018-07-26T17:46:48.560Z,34.00
2018-07-26T17:49:17.708Z,34.10
2018-07-26T17:51:46.835Z,34.50
2018-07-26T17:54:15.920Z,34.90
2018-07-26T17:56:45.043Z,35.60
2018-07-26T17:59:14.740Z,36.10
2018-07-26T18:01:43.928Z,36.30
2018-07-26T18:04:13.001Z,36.30
2018-07-26T18:06:42.065Z,36.50
2018-07-26T18:09:11.210Z,36.60
2018-07-26T18:11:40.335Z,36.30
2018-07-26T18:14:09.408Z,35.80
2018-07-26T18:16:38.485Z,35.30
2018-07-26T18:19:07.610Z,34.60
2018-07-26T18:21:36.754Z,34.00
2018-07-26T18:24:06.084Z,33.20
2018-07-26T18:26:35.227Z,32.50
2018-07-26T18:29:04.418Z,32.00
2018-07-26T18:31:33.771Z,31.70
2018-07-26T18:34:02.834Z,31.40
2018-07-26T18:36:31.956Z,31.20
2018-07-26T18:39:01.054Z,31.00
2018-07-26T18:41:30.222Z,30.60
2018-07-26T18:43:59.382Z,30.40
2018-07-26T18:46:28.480Z,30.20
2018-07-26T18:48:57.562Z,30.00
2018-07-26T18:53:55.328Z,29.70
2018-07-26T18:56:24.392Z,29.50
2018-07-26T18:58:53.938Z,29.40
2018-07-26T19:01:23.032Z,29.20
2018-07-26T19:03:53.331Z,29.10
2018-07-26T19:06:22.684Z,28.90
2018-07-26T19:08:51.748Z,28.80
2018-07-26T19:11:21.486Z,28.80
2018-07-26T19:13:50.612Z,28.70
2018-07-26T19:16:19.725Z,28.60
2018-07-26T19:18:48.856Z,28.50
2018-07-26T19:23:46.665Z,28.20
2018-07-26T19:28:44.850Z,28.00
2018-07-26T19:31:14.038Z,27.90
2018-07-26T19:33:43.194Z,27.70
2018-07-26T19:36:12.323Z,27.70
2018-07-26T19:38:41.694Z,27.70
2018-07-26T19:41:10.821Z,27.60
2018-07-26T19:46:08.686Z,27.30
2018-07-26T19:51:06.441Z,27.30
2018-07-26T19:53:35.498Z,27.20
2018-07-26T19:56:04.715Z,27.20
2018-07-26T19:58:33.764Z,27.10
2018-07-26T20:03:32.041Z,27.00
2018-07-26T20:06:01.395Z,27.00
2018-07-26T20:08:30.454Z,27.00
2018-07-26T20:10:59.519Z,27.00
2018-07-26T20:13:28.618Z,27.00
2018-07-26T20:15:57.724Z,26.80
2018-07-26T20:18:26.828Z,26.90
2018-07-26T20:23:24.626Z,26.70
2018-07-26T20:25:54.572Z,26.70
2018-07-26T20:28:23.684Z,26.60
2018-07-26T20:30:52.751Z,26.50
2018-07-26T20:33:21.868Z,26.40
2018-07-26T20:35:50.978Z,26.30
2018-07-26T20:38:20.074Z,26.30
2018-07-26T20:40:49.170Z,26.30
2018-07-26T20:43:19.020Z,26.20
2018-07-26T20:45:48.056Z,26.20
2018-07-26T20:50:45.850Z,26.00
2018-07-26T20:53:14.866Z,26.00
2018-07-26T20:55:44.005Z,26.00
2018-07-26T20:58:13.048Z,25.80
2018-07-26T21:03:11.557Z,25.80
2018-07-26T21:05:40.772Z,25.80
2018-07-26T21:10:38.629Z,25.60
2018-07-26T21:13:07.702Z,25.50
2018-07-26T21:15:36.798Z,25.50
2018-07-26T21:18:06.003Z,25.50
2018-07-26T21:20:35.312Z,25.50
2018-07-26T21:23:04.435Z,25.40
2018-07-26T21:25:33.506Z,25.30
2018-07-26T21:28:02.585Z,25.30
2018-07-26T21:30:31.869Z,25.30
2018-07-26T21:33:00.952Z,25.20
2018-07-26T21:35:30.033Z,25.10
2018-07-26T21:37:59.144Z,25.10
2018-07-26T21:40:28.287Z,25.00
2018-07-26T21:42:57.411Z,24.90
2018-07-26T21:45:26.515Z,24.90
2018-07-26T21:47:55.918Z,24.70
2018-07-26T21:50:25.091Z,24.70
2018-07-26T21:55:22.992Z,24.60
2018-07-26T21:57:52.177Z,24.60
2018-07-26T22:00:21.381Z,24.70
2018-07-26T22:02:50.483Z,24.70
2018-07-26T22:07:48.190Z,24.70
2018-07-26T22:10:17.485Z,24.70
2018-07-26T22:12:46.613Z,24.60
2018-07-26T22:15:15.771Z,24.60
2018-07-26T22:17:44.759Z,24.50
2018-07-26T22:20:13.845Z,24.40
2018-07-26T22:22:42.903Z,24.40
2018-07-26T22:25:12.001Z,24.40
2018-07-26T22:27:41.213Z,24.40
2018-07-26T22:32:39.147Z,24.20
2018-07-26T22:35:08.271Z,24.00
2018-07-26T22:37:37.433Z,23.80
2018-07-26T22:40:07.500Z,23.60
2018-07-26T22:42:36.587Z,23.20
2018-07-26T22:45:06.089Z,23.20
2018-07-26T22:47:35.189Z,23.20
2018-07-26T22:50:04.880Z,23.20
2018-07-26T22:52:33.977Z,23.10
2018-07-26T22:55:03.170Z,23.10
2018-07-26T22:57:32.366Z,23.00
2018-07-26T23:00:01.533Z,23.10
2018-07-26T23:02:30.632Z,23.10
2018-07-26T23:04:59.767Z,23.10
2018-07-26T23:07:28.845Z,23.10
2018-07-26T23:09:58.176Z,23.10
2018-07-26T23:12:28.015Z,23.10
2018-07-26T23:14:57.041Z,23.00
2018-07-26T23:17:26.270Z,22.80
2018-07-26T23:19:56.049Z,22.90
2018-07-26T23:22:25.198Z,22.90
2018-07-26T23:27:23.054Z,22.80
2018-07-26T23:32:20.841Z,22.60
2018-07-26T23:34:50.060Z,22.60
2018-07-26T23:37:19.301Z,22.70
2018-07-26T23:39:49.093Z,22.60
2018-07-26T23:42:18.796Z,22.40
2018-07-26T23:44:47.980Z,22.40
2018-07-26T23:49:45.884Z,22.40
2018-07-26T23:52:14.988Z,22.20
2018-07-26T23:54:44.124Z,22.20
2018-07-26T23:57:13.354Z,22.10
2018-07-26T23:59:42.485Z,22.10
